Time;durP1;ratioP1;P1;durP2;ratioP2;P2;SDS_P1;SDS_P2;PMS_P1;PMS_P2;Temp;Humidity;BMP_temperature;BMP_pressure;BME280_temperature;BME280_humidity;BME280_pressure;Samples;Min_cycle;Max_cycle;Signal;HPM_P1;HPM_P2
2022/11/15 00:01:56;;;;;;;6.3;4.8;;;;;;;;;;;;;
2022/11/15 00:04:23;;;;;;;6.2;4.5;;;;;;;;;;;;;
2022/11/15 00:06:48;;;;;;;5.6;4.1;;;;;;;;;;;;;
2022/11/15 00:09:17;;;;;;;6.2;4.1;;;;;;;;;;;;;
2022/11/15 00:11:46;;;;;;;5.6;4;;;;;;;;;;;;;
2022/11/15 00:14:18;;;;;;;6.3;4;;;;;;;;;;;;;
2022/11/15 00:16:45;;;;;;;4.7;3.3;;;;;;;;;;;;;
2022/11/15 00:19:16;;;;;;;4.9;3.8;;;;;;;;;;;;;
2022/11/15 00:21:45;;;;;;;4.7;3.5;;;;;;;;;;;;;
2022/11/15 00:24:13;;;;;;;6.6;3.7;;;;;;;;;;;;;
2022/11/15 00:26:43;;;;;;;6.6;4.2;;;;;;;;;;;;;
2022/11/15 00:29:10;;;;;;;6.1;4;;;;;;;;;;;;;
2022/11/15 00:31:35;;;;;;;6.4;4;;;;;;;;;;;;;
2022/11/15 00:34:00;;;;;;;6.5;4.1;;;;;;;;;;;;;
2022/11/15 00:36:25;;;;;;;6.6;4.1;;;;;;;;;;;;;
2022/11/15 00:38:52;;;;;;;4.7;3.3;;;;;;;;;;;;;
2022/11/15 00:41:17;;;;;;;4.5;3.6;;;;;;;;;;;;;
2022/11/15 00:43:44;;;;;;;7.7;3.6;;;;;;;;;;;;;
2022/11/15 00:46:09;;;;;;;5.1;3.4;;;;;;;;;;;;;
2022/11/15 00:48:35;;;;;;;5.1;3.4;;;;;;;;;;;;;
2022/11/15 00:51:00;;;;;;;4.8;3.4;;;;;;;;;;;;;
2022/11/15 00:53:26;;;;;;;4.4;3.6;;;;;;;;;;;;;
2022/11/15 00:55:51;;;;;;;4;3.1;;;;;;;;;;;;;
2022/11/15 00:58:17;;;;;;;5.6;3.5;;;;;;;;;;;;;
2022/11/15 01:00:42;;;;;;;4.1;3.2;;;;;;;;;;;;;
2022/11/15 01:03:07;;;;;;;4.7;3.1;;;;;;;;;;;;;
2022/11/15 01:05:33;;;;;;;5;3.3;;;;;;;;;;;;;
2022/11/15 01:07:59;;;;;;;4.4;3.1;;;;;;;;;;;;;
2022/11/15 01:10:25;;;;;;;3.2;2.9;;;;;;;;;;;;;
2022/11/15 01:12:51;;;;;;;3.4;2.9;;;;;;;;;;;;;
2022/11/15 01:15:16;;;;;;;4.5;3.6;;;;;;;;;;;;;
2022/11/15 01:17:42;;;;;;;5.1;3.3;;;;;;;;;;;;;
2022/11/15 01:20:12;;;;;;;3.7;3.1;;;;;;;;;;;;;
2022/11/15 01:22:32;;;;;;;6.5;3.2;;;;;;;;;;;;;
2022/11/15 01:24:59;;;;;;;4.5;3.2;;;;;;;;;;;;;
2022/11/15 01:27:25;;;;;;;5;3.4;;;;;;;;;;;;;
2022/11/15 01:29:50;;;;;;;6.3;3.4;;;;;;;;;;;;;
2022/11/15 01:32:15;;;;;;;5.3;3.4;;;;;;;;;;;;;
2022/11/15 01:34:53;;;;;;;5;3.1;;;;;;;;;;;;;
2022/11/15 01:37:19;;;;;;;5.6;3.1;;;;;;;;;;;;;
2022/11/15 01:39:44;;;;;;;4.2;3;;;;;;;;;;;;;
2022/11/15 01:42:10;;;;;;;4.5;3;;;;;;;;;;;;;
2022/11/15 01:44:35;;;;;;;6.7;3.6;;;;;;;;;;;;;
2022/11/15 01:47:00;;;;;;;5;3.6;;;;;;;;;;;;;
2022/11/15 01:49:25;;;;;;;6.1;3.9;;;;;;;;;;;;;
2022/11/15 01:51:50;;;;;;;6.7;4.5;;;;;;;;;;;;;
2022/11/15 01:54:16;;;;;;;6.2;4;;;;;;;;;;;;;
2022/11/15 01:56:42;;;;;;;7.6;4;;;;;;;;;;;;;
2022/11/15 01:59:07;;;;;;;5.8;3.5;;;;;;;;;;;;;
2022/11/15 02:01:32;;;;;;;6.1;3.8;;;;;;;;;;;;;
2022/11/15 02:03:58;;;;;;;5.6;3;;;;;;;;;;;;;
2022/11/15 02:06:23;;;;;;;3.9;2.7;;;;;;;;;;;;;
2022/11/15 02:08:48;;;;;;;3.6;2.5;;;;;;;;;;;;;
2022/11/15 02:11:14;;;;;;;6.5;3.2;;;;;;;;;;;;;
2022/11/15 02:13:39;;;;;;;4.2;2.7;;;;;;;;;;;;;
2022/11/15 02:16:08;;;;;;;3.5;2.6;;;;;;;;;;;;;
2022/11/15 02:18:33;;;;;;;4.4;2.8;;;;;;;;;;;;;
2022/11/15 02:20:58;;;;;;;4.3;2.5;;;;;;;;;;;;;
2022/11/15 02:23:25;;;;;;;4.8;3.2;;;;;;;;;;;;;
2022/11/15 02:25:50;;;;;;;4.3;2.9;;;;;;;;;;;;;
2022/11/15 02:28:15;;;;;;;4.6;3.1;;;;;;;;;;;;;
2022/11/15 02:30:42;;;;;;;4;3;;;;;;;;;;;;;
2022/11/15 02:33:07;;;;;;;5.6;3.2;;;;;;;;;;;;;
2022/11/15 02:35:33;;;;;;;4.5;2.9;;;;;;;;;;;;;
2022/11/15 02:37:58;;;;;;;3.1;2.6;;;;;;;;;;;;;
2022/11/15 02:40:23;;;;;;;4.6;2.8;;;;;;;;;;;;;
2022/11/15 02:45:14;;;;;;;5.9;3.1;;;;;;;;;;;;;
2022/11/15 02:47:42;;;;;;;4.6;3;;;;;;;;;;;;;
2022/11/15 02:50:07;;;;;;;6;3.2;;;;;;;;;;;;;
2022/11/15 02:52:32;;;;;;;7;3.4;;;;;;;;;;;;;
2022/11/15 02:54:57;;;;;;;6.6;3.7;;;;;;;;;;;;;
2022/11/15 02:57:25;;;;;;;5.5;3.7;;;;;;;;;;;;;
2022/11/15 02:59:53;;;;;;;6.3;3.4;;;;;;;;;;;;;
2022/11/15 03:02:18;;;;;;;4.1;3;;;;;;;;;;;;;
2022/11/15 03:04:43;;;;;;;8.1;3.5;;;;;;;;;;;;;
2022/11/15 03:07:09;;;;;;;3.3;2.7;;;;;;;;;;;;;
2022/11/15 03:09:34;;;;;;;3.7;2.6;;;;;;;;;;;;;
2022/11/15 03:12:00;;;;;;;2.9;2.6;;;;;;;;;;;;;
2022/11/15 03:14:25;;;;;;;2.8;2.5;;;;;;;;;;;;;
2022/11/15 03:16:50;;;;;;;3.2;2.4;;;;;;;;;;;;;
2022/11/15 03:19:16;;;;;;;4;2.5;;;;;;;;;;;;;
2022/11/15 03:21:41;;;;;;;3.8;2.5;;;;;;;;;;;;;
2022/11/15 03:24:06;;;;;;;2.5;2.3;;;;;;;;;;;;;
2022/11/15 03:26:31;;;;;;;3.7;2.7;;;;;;;;;;;;;
2022/11/15 03:28:58;;;;;;;3.3;2.7;;;;;;;;;;;;;
2022/11/15 03:33:48;;;;;;;6.7;4.9;;;;;;;;;;;;;
2022/11/15 03:36:16;;;;;;;5.7;3.8;;;;;;;;;;;;;
2022/11/15 03:38:41;;;;;;;9.7;7.1;;;;;;;;;;;;;
2022/11/15 03:41:06;;;;;;;6.7;4.7;;;;;;;;;;;;;
2022/11/15 03:43:31;;;;;;;3.2;2.9;;;;;;;;;;;;;
2022/11/15 03:45:56;;;;;;;5.4;3;;;;;;;;;;;;;
2022/11/15 03:48:23;;;;;;;3.6;2.6;;;;;;;;;;;;;
2022/11/15 03:50:48;;;;;;;2.8;2.5;;;;;;;;;;;;;
2022/11/15 03:53:14;;;;;;;3.2;2.6;;;;;;;;;;;;;
2022/11/15 03:55:39;;;;;;;2.4;2.2;;;;;;;;;;;;;
2022/11/15 03:58:06;;;;;;;2.9;2.2;;;;;;;;;;;;;
2022/11/15 04:02:35;;;;;;;3.5;2.2;;;;;;;3.35;88.92383;935.4097;;;;
2022/11/15 04:05:08;;;;;;;2.3;2;;;;;;;3.38;88.85156;935.3767;;;;
2022/11/15 04:07:38;;;;;;;3.3;2.3;;;;;;;3.42;88.46973;935.3691;;;;
2022/11/15 04:10:11;;;;;;;2.3;2.1;;;;;;;3.43;88.35742;935.4227;;;;
2022/11/15 04:12:47;;;;;;;2.3;2.1;;;;;;;3.59;88.02051;935.4221;;;;
2022/11/15 04:16:03;;;;;;;4.4;3.3;;;;;;;3.72;87.05762;935.3516;;;;
2022/11/15 04:18:28;;;;;;;13.2;7;;;;;;;3.83;86.43848;935.2573;;;;
2022/11/15 04:25:49;;;;;;;4.5;3;;;;;;;3.97;84.90527;935.3286;;;;
2022/11/15 04:28:15;;;;;;;6.5;3.4;;;;;;;3.97;84.53418;935.3625;;;;
2022/11/15 04:30:42;;;;;;;3.2;2.7;;;;;;;3.93;84.97656;935.3856;;;;
2022/11/15 04:33:07;;;;;;;3.2;2.4;;;;;;;3.81;85.44629;935.2798;;;;
2022/11/15 04:35:35;;;;;;;4.8;2.7;;;;;;;3.69;86.1084;935.3972;;;;
2022/11/15 04:38:00;;;;;;;2.6;2.4;;;;;;;3.61;86.86621;935.3491;;;;
2022/11/15 04:40:28;;;;;;;3.2;2.7;;;;;;;3.3;88.18457;935.3641;;;;
2022/11/15 04:42:58;;;;;;;3;2.2;;;;;;;3.41;88.3291;935.2717;;;;
2022/11/15 04:45:23;;;;;;;3.1;2.6;;;;;;;3.36;88.43164;935.3541;;;;
2022/11/15 04:47:51;;;;;;;4.5;2.5;;;;;;;3.45;88.39453;935.3028;;;;
2022/11/15 04:50:17;;;;;;;2.6;2.4;;;;;;;3.56;87.50879;935.3276;;;;
2022/11/15 04:52:46;;;;;;;4.6;3.2;;;;;;;3.73;86.70117;935.1849;;;;
2022/11/15 04:55:14;;;;;;;2.5;2;;;;;;;3.71;85.96582;935.1875;;;;
2022/11/15 04:57:39;;;;;;;2.4;2;;;;;;;3.93;84.83984;935.2439;;;;
2022/11/15 05:00:06;;;;;;;2.1;1.9;;;;;;;4.08;83.56543;935.1658;;;;
2022/11/15 05:04:18;;;;;;;2.5;1.7;;;;;;;4.16;82.74902;935.0923;;;;
2022/11/15 05:04:57;;;;;;;3.1;2.4;;;;;;;4.29;82.47168;935.0223;;;;
2022/11/15 05:07:25;;;;;;;2.7;2.3;;;;;;;4.34;82.05273;934.9669;;;;
2022/11/15 05:09:50;;;;;;;2.5;1.5;;;;;;;4.41;81.67285;934.9258;;;;
2022/11/15 05:12:18;;;;;;;1.9;1.7;;;;;;;4.51;81.00684;934.8386;;;;
2022/11/15 05:14:43;;;;;;;1.6;1.5;;;;;;;4.5;80.93555;934.8257;;;;
2022/11/15 05:17:08;;;;;;;2.3;1.6;;;;;;;4.46;81.33398;934.8853;;;;
2022/11/15 05:22:41;;;;;;;2.9;1.6;;;;;;;4.39;81.42188;934.8502;;;;
2022/11/15 05:25:18;;;;;;;3.1;1.6;;;;;;;4.24;82.04492;934.8373;;;;
2022/11/15 05:27:46;;;;;;;2.4;2;;;;;;;3.95;83.27148;934.8791;;;;
2022/11/15 05:30:15;;;;;;;3.7;2.5;;;;;;;3.54;85.62891;934.8153;;;;
2022/11/15 05:32:40;;;;;;;3.9;3.1;;;;;;;3.42;86.40332;934.8047;;;;
2022/11/15 05:35:33;;;;;;;6;3.7;;;;;;;3.23;87.39551;934.8097;;;;
2022/11/15 05:37:57;;;;;;;5.7;3.8;;;;;;;3.13;87.96777;934.7353;;;;
2022/11/15 05:40:22;;;;;;;7.5;5.1;;;;;;;3.06;88.30273;934.8094;;;;
2022/11/15 05:42:50;;;;;;;8;5.4;;;;;;;3;88.7832;934.8041;;;;
2022/11/15 05:45:16;;;;;;;7.8;4.8;;;;;;;3.02;89.04688;934.7855;;;;
2022/11/15 05:47:43;;;;;;;5.6;3.9;;;;;;;3.14;88.72363;934.7932;;;;
2022/11/15 05:50:08;;;;;;;9.7;4.3;;;;;;;3.28;87.84473;934.805;;;;
2022/11/15 05:52:35;;;;;;;7.1;5;;;;;;;3.25;87.63477;934.7385;;;;
2022/11/15 05:55:00;;;;;;;14.2;8.7;;;;;;;3.27;87.18945;934.7642;;;;
2022/11/15 05:57:25;;;;;;;10.9;6.8;;;;;;;3.24;86.9834;934.7628;;;;
2022/11/15 05:59:50;;;;;;;10.3;6.5;;;;;;;3.15;87.36719;934.6997;;;;
2022/11/15 06:02:16;;;;;;;5.3;3.7;;;;;;;3.14;87.95117;934.6909;;;;
2022/11/15 06:04:41;;;;;;;7.1;4.5;;;;;;;3.05;88.7959;934.7158;;;;
2022/11/15 06:07:06;;;;;;;6.2;4.6;;;;;;;3.14;88.61133;934.7302;;;;
2022/11/15 06:09:33;;;;;;;9.5;6;;;;;;;3.17;88.41504;934.7475;;;;
2022/11/15 06:11:58;;;;;;;7.9;5.2;;;;;;;3.3;88.16211;934.6559;;;;
2022/11/15 06:14:26;;;;;;;9;5.7;;;;;;;3.39;87.57324;934.5845;;;;
2022/11/15 06:16:55;;;;;;;7.6;6;;;;;;;3.49;86.79785;934.4856;;;;
2022/11/15 06:19:21;;;;;;;9.9;6.8;;;;;;;3.52;86.14258;934.5889;;;;
2022/11/15 06:21:46;;;;;;;7.3;6.2;;;;;;;3.59;85.57129;934.5342;;;;
2022/11/15 06:24:14;;;;;;;6.3;4.9;;;;;;;3.65;85.29199;934.5868;;;;
2022/11/15 06:26:40;;;;;;;10.3;6.4;;;;;;;3.64;86.11914;934.5697;;;;
2022/11/15 06:29:06;;;;;;;8.6;5.8;;;;;;;3.65;86.01074;934.5072;;;;
2022/11/15 06:31:31;;;;;;;8.8;5.7;;;;;;;3.62;86.13867;934.5519;;;;
2022/11/15 06:33:59;;;;;;;9;6;;;;;;;3.5;86.75488;934.5356;;;;
2022/11/15 06:36:24;;;;;;;9.6;6.3;;;;;;;3.55;86.39551;934.5598;;;;
2022/11/15 06:38:52;;;;;;;9.5;6.5;;;;;;;3.6;86.36133;934.5244;;;;
2022/11/15 06:41:18;;;;;;;7.8;5.6;;;;;;;3.64;86.09863;934.5283;;;;
2022/11/15 06:43:45;;;;;;;7.4;5.9;;;;;;;3.68;85.51074;934.5402;;;;
2022/11/15 06:46:10;;;;;;;11.6;7.8;;;;;;;3.62;85.85742;934.5392;;;;
2022/11/15 06:49:13;;;;;;;12;8.5;;;;;;;3.41;87.17383;934.5746;;;;
2022/11/15 06:51:43;;;;;;;9.9;7.1;;;;;;;3.55;86.86719;934.563;;;;
2022/11/15 06:54:08;;;;;;;8.7;6.5;;;;;;;3.47;87.24316;934.5865;;;;
2022/11/15 06:56:36;;;;;;;10.7;6.2;;;;;;;3.58;86.34473;934.5797;;;;
2022/11/15 06:59:01;;;;;;;15;7.4;;;;;;;3.67;85.46387;934.6369;;;;
2022/11/15 07:01:30;;;;;;;10.7;7.2;;;;;;;3.7;85.42383;934.5511;;;;
2022/11/15 07:03:55;;;;;;;10.9;6.2;;;;;;;3.88;85.84277;934.4666;;;;
2022/11/15 07:06:21;;;;;;;7.5;5.3;;;;;;;4.32;83.45605;934.5256;;;;
2022/11/15 07:08:46;;;;;;;8.9;6.6;;;;;;;4.81;81.20605;934.3948;;;;
2022/11/15 07:11:14;;;;;;;9.9;6.4;;;;;;;5.33;78.78125;934.4471;;;;
2022/11/15 07:13:39;;;;;;;9.5;6.8;;;;;;;5.75;76.48633;934.4434;;;;
2022/11/15 07:16:10;;;;;;;11;6.6;;;;;;;6.12;75.16309;934.4407;;;;
2022/11/15 07:18:35;;;;;;;11.7;6.6;;;;;;;6.33;73.93262;934.4055;;;;
2022/11/15 07:21:03;;;;;;;11.7;6.7;;;;;;;6.58;72.98145;934.3574;;;;
2022/11/15 07:23:28;;;;;;;8.8;5.1;;;;;;;6.92;71.87207;934.3378;;;;
2022/11/15 07:25:57;;;;;;;6.9;4.6;;;;;;;7.21;69.7793;934.3117;;;;
2022/11/15 07:28:22;;;;;;;5.8;3.3;;;;;;;7.41;67.83887;934.1939;;;;
2022/11/15 07:30:48;;;;;;;4.7;3.3;;;;;;;7.89;66.63379;934.248;;;;
2022/11/15 07:33:13;;;;;;;6.5;4.2;;;;;;;8.08;66.37891;934.1833;;;;
2022/11/15 07:35:42;;;;;;;6.3;4.1;;;;;;;8.27;64.95508;934.1264;;;;
2022/11/15 07:38:20;;;;;;;6.4;4.7;;;;;;;8.66;66.59375;934.1067;;;;
2022/11/15 07:49:16;;;;;;;4.5;2.9;;;;;;;9.32;60.67285;933.9765;;;;
2022/11/15 07:51:41;;;;;;;4.9;3;;;;;;;9.52;60.88281;933.9542;;;;
2022/11/15 07:54:07;;;;;;;6.9;3.4;;;;;;;9.65;61.01563;933.9903;;;;
2022/11/15 07:56:32;;;;;;;4.4;3.6;;;;;;;10.36;57.9668;933.9875;;;;
2022/11/15 07:59:00;;;;;;;4.7;3.8;;;;;;;10.59;57.96289;933.8976;;;;
2022/11/15 08:01:24;;;;;;;6.2;3.5;;;;;;;11.27;55.76758;933.7966;;;;
2022/11/15 08:03:53;;;;;;;6.1;3.2;;;;;;;11.7;54.23145;933.7838;;;;
2022/11/15 08:06:19;;;;;;;5.9;3.5;;;;;;;11.84;53.83496;933.6962;;;;
2022/11/15 08:08:46;;;;;;;5.8;3.5;;;;;;;12.3;52.41309;933.5786;;;;
2022/11/15 08:11:18;;;;;;;3.5;3;;;;;;;12.52;51.32813;933.6351;;;;
2022/11/15 08:13:45;;;;;;;4.8;2.5;;;;;;;12.33;51.60352;933.639;;;;
2022/11/15 08:16:11;;;;;;;6.1;3.2;;;;;;;12.46;51.24023;933.6083;;;;
2022/11/15 08:18:39;;;;;;;5.4;3.2;;;;;;;12.59;51.0957;933.5212;;;;
2022/11/15 08:21:05;;;;;;;5.3;3.6;;;;;;;12.64;49.54199;933.4933;;;;
2022/11/15 08:23:32;;;;;;;4.3;3.1;;;;;;;12.96;49.41602;933.4875;;;;
2022/11/15 08:25:57;;;;;;;4.4;3.1;;;;;;;12.87;49.77344;933.4913;;;;
2022/11/15 08:28:23;;;;;;;5.4;3.6;;;;;;;12.55;50.57422;933.4417;;;;
2022/11/15 08:30:48;;;;;;;4.9;3.7;;;;;;;12.45;51.29785;933.4135;;;;
2022/11/15 08:33:14;;;;;;;6.1;3.8;;;;;;;12.41;50.84473;933.36;;;;
2022/11/15 08:35:39;;;;;;;5.2;3.6;;;;;;;12.23;51.76367;933.2844;;;;
2022/11/15 08:38:07;;;;;;;3.6;2.5;;;;;;;10.91;54.05273;933.3308;;;;
2022/11/15 08:40:32;;;;;;;6;2.6;;;;;;;10.85;55.29004;933.3268;;;;
2022/11/15 08:43:02;;;;;;;5.2;3.3;;;;;;;10.06;57.49219;933.3105;;;;
2022/11/15 08:45:24;;;;;;;5.6;2.8;;;;;;;9.79;57.74219;933.2278;;;;
2022/11/15 08:47:49;;;;;;;4.9;2.6;;;;;;;9.75;57.67871;933.1911;;;;
2022/11/15 08:50:14;;;;;;;11;3.4;;;;;;;9.75;59.37695;933.1967;;;;
2022/11/15 08:52:41;;;;;;;4.1;2.6;;;;;;;9.65;59.5918;933.1613;;;;
2022/11/15 08:55:06;;;;;;;4.3;2.4;;;;;;;9.57;58.32715;933.0978;;;;
2022/11/15 08:57:32;;;;;;;2.6;2.1;;;;;;;9.55;58.3252;933.0842;;;;
2022/11/15 08:59:57;;;;;;;3.5;2.5;;;;;;;9.55;60.15918;933.1113;;;;
2022/11/15 09:02:26;;;;;;;2.8;2;;;;;;;9.43;58.94824;932.97;;;;
2022/11/15 09:04:51;;;;;;;2;1.8;;;;;;;9.38;59.93066;933.0115;;;;
2022/11/15 09:07:16;;;;;;;2.1;1.8;;;;;;;9.43;59.65234;933.0002;;;;
2022/11/15 09:09:42;;;;;;;3.5;2;;;;;;;9.48;59.67188;932.9941;;;;
2022/11/15 09:12:07;;;;;;;3.6;2.5;;;;;;;9.58;60.31152;932.8792;;;;
2022/11/15 09:14:33;;;;;;;2.6;2.4;;;;;;;9.71;60.6377;932.892;;;;
2022/11/15 09:16:58;;;;;;;2.8;2.3;;;;;;;9.86;59.34668;932.9587;;;;
2022/11/15 09:19:25;;;;;;;2.3;2.1;;;;;;;9.91;60.42578;932.8691;;;;
2022/11/15 09:21:50;;;;;;;3.4;2.1;;;;;;;10.04;60.27344;932.8117;;;;
2022/11/15 09:24:17;;;;;;;4;2.1;;;;;;;10.11;57.12207;932.7872;;;;
2022/11/15 09:26:42;;;;;;;1.9;1.4;;;;;;;10.33;54.94922;932.7364;;;;
2022/11/15 09:29:09;;;;;;;2.4;1.6;;;;;;;10.37;57.51172;932.738;;;;
2022/11/15 09:31:34;;;;;;;1.7;1.4;;;;;;;10.47;56.90723;932.6708;;;;
2022/11/15 09:33:59;;;;;;;2.6;1.4;;;;;;;10.44;55.73926;932.701;;;;
2022/11/15 09:36:25;;;;;;;2.6;1.7;;;;;;;10.53;56.07129;932.6135;;;;
2022/11/15 09:38:50;;;;;;;5.8;1.7;;;;;;;10.57;55.79102;932.5721;;;;
2022/11/15 09:41:17;;;;;;;4.9;2;;;;;;;10.72;56.74609;932.5915;;;;
2022/11/15 09:43:44;;;;;;;2.2;1.5;;;;;;;10.76;55.80371;932.5485;;;;
2022/11/15 09:46:09;;;;;;;3.3;1.5;;;;;;;10.74;56.36133;932.4481;;;;
2022/11/15 09:48:34;;;;;;;5.7;1.6;;;;;;;10.89;55.61426;932.4283;;;;
2022/11/15 09:51:01;;;;;;;2.7;1.7;;;;;;;11.12;54.56934;932.3788;;;;
2022/11/15 09:53:26;;;;;;;7.8;3.6;;;;;;;11.26;54.16406;932.3508;;;;
2022/11/15 09:55:51;;;;;;;3.7;1.9;;;;;;;11.26;53.22656;932.3293;;;;
2022/11/15 09:58:16;;;;;;;3.6;1.5;;;;;;;11.39;53.89453;932.3082;;;;
2022/11/15 10:00:41;;;;;;;2.4;1.4;;;;;;;11.47;53.04688;932.2883;;;;
2022/11/15 10:03:06;;;;;;;3.6;1.7;;;;;;;11.54;53.79785;932.2537;;;;
2022/11/15 10:05:32;;;;;;;1.6;1.4;;;;;;;11.66;52.9668;932.1984;;;;
2022/11/15 10:07:57;;;;;;;2.4;1.1;;;;;;;11.68;52.54492;932.1186;;;;
2022/11/15 10:10:22;;;;;;;2.6;1.4;;;;;;;11.85;52.44043;932.0505;;;;
2022/11/15 10:12:51;;;;;;;2.4;1.7;;;;;;;11.84;52.55273;931.99;;;;
2022/11/15 10:15:16;;;;;;;2.1;1.4;;;;;;;12.01;51.9668;931.9243;;;;
2022/11/15 10:17:44;;;;;;;2;1.4;;;;;;;12.14;51.55859;931.8822;;;;
2022/11/15 10:20:09;;;;;;;1.9;1.1;;;;;;;12.24;50.34375;931.723;;;;
2022/11/15 10:22:34;;;;;;;2.4;1.2;;;;;;;12.32;49.10352;931.6959;;;;
2022/11/15 10:24:59;;;;;;;2.3;1.2;;;;;;;12.35;48.40723;931.7548;;;;
2022/11/15 10:27:24;;;;;;;1.4;1.2;;;;;;;12.58;46.63086;931.7004;;;;
2022/11/15 10:29:49;;;;;;;1.4;1;;;;;;;12.74;47.63574;931.5467;;;;
2022/11/15 10:32:14;;;;;;;2.9;1.9;;;;;;;12.9;47.0791;931.5974;;;;
2022/11/15 10:34:40;;;;;;;3.7;2;;;;;;;12.98;47.03125;931.5438;;;;
2022/11/15 10:37:05;;;;;;;1.9;1.5;;;;;;;13.06;45.78809;931.5184;;;;
2022/11/15 10:39:30;;;;;;;4.1;1.7;;;;;;;13.28;46.32813;931.4469;;;;
2022/11/15 10:41:55;;;;;;;1.4;1.1;;;;;;;13.39;48.25977;931.4103;;;;
2022/11/15 10:44:21;;;;;;;0.8;0.8;;;;;;;13.41;47.13477;931.3069;;;;
2022/11/15 10:46:46;;;;;;;2;1.1;;;;;;;13.48;46.82129;931.3191;;;;
2022/11/15 10:49:13;;;;;;;1.4;1.2;;;;;;;13.57;45.3125;931.27;;;;
2022/11/15 10:51:38;;;;;;;1.5;1.3;;;;;;;13.68;47.2666;931.2328;;;;
2022/11/15 10:54:03;;;;;;;1.7;1;;;;;;;13.72;46.16797;931.1442;;;;
2022/11/15 10:56:28;;;;;;;2.1;1.3;;;;;;;13.81;45.85645;931.182;;;;
2022/11/15 10:58:55;;;;;;;1.7;1.1;;;;;;;13.89;45.54199;931.0964;;;;
2022/11/15 11:01:21;;;;;;;1.6;1.1;;;;;;;14.02;43.70215;930.9955;;;;
2022/11/15 11:03:46;;;;;;;1;0.9;;;;;;;14.1;43.43359;931.0111;;;;
2022/11/15 11:06:11;;;;;;;2.2;0.9;;;;;;;14.12;43.68848;930.9731;;;;
2022/11/15 11:08:36;;;;;;;1.1;0.9;;;;;;;14.26;42.97754;930.9542;;;;
2022/11/15 11:11:01;;;;;;;2;0.7;;;;;;;14.43;43.7207;930.8719;;;;
2022/11/15 11:13:27;;;;;;;1.6;0.9;;;;;;;14.68;44.29785;930.742;;;;
2022/11/15 11:15:52;;;;;;;2.6;1;;;;;;;14.87;43.15137;930.6618;;;;
2022/11/15 11:18:18;;;;;;;1.1;0.7;;;;;;;15.01;42.04785;930.647;;;;
2022/11/15 11:20:43;;;;;;;2.1;0.8;;;;;;;15.04;43.52734;930.6514;;;;
2022/11/15 11:23:09;;;;;;;1.1;0.8;;;;;;;15.33;42.10156;930.5575;;;;
2022/11/15 11:25:34;;;;;;;1.4;0.9;;;;;;;15.4;42.03906;930.4854;;;;
2022/11/15 11:27:59;;;;;;;0.8;0.8;;;;;;;15.79;41.63672;930.5025;;;;
2022/11/15 11:30:24;;;;;;;1.7;0.7;;;;;;;17.88;36.62305;930.4633;;;;
2022/11/15 11:32:49;;;;;;;5.3;1;;;;;;;20.33;33.37012;930.3513;;;;
2022/11/15 11:35:16;;;;;;;1.6;0.8;;;;;;;21.97;30.96289;930.3615;;;;
2022/11/15 11:37:41;;;;;;;1.2;0.6;;;;;;;23.8;28.3252;930.2541;;;;
2022/11/15 11:40:07;;;;;;;3.5;1.3;;;;;;;25.16;26.33398;930.2205;;;;
2022/11/15 11:42:34;;;;;;;1;0.8;;;;;;;26.72;24.3291;930.2385;;;;
2022/11/15 11:44:59;;;;;;;0.9;0.7;;;;;;;28.01;23.16309;930.1667;;;;
2022/11/15 11:47:25;;;;;;;1.5;1;;;;;;;29;21.46484;930.1563;;;;
2022/11/15 11:49:50;;;;;;;3.1;1;;;;;;;29.61;20.92188;930.0837;;;;
2022/11/15 11:52:15;;;;;;;0.6;0.6;;;;;;;29.54;20.5127;930.0793;;;;
2022/11/15 11:54:40;;;;;;;2.2;0.6;;;;;;;29.9;19.76563;930.1273;;;;
2022/11/15 11:57:06;;;;;;;1.8;0.8;;;;;;;30.67;19.25;930.0131;;;;
2022/11/15 11:59:33;;;;;;;0.6;0.6;;;;;;;32.18;18.00781;929.9933;;;;
2022/11/15 12:01:58;;;;;;;0.8;0.5;;;;;;;33.03;17.62012;929.9666;;;;
2022/11/15 12:04:27;;;;;;;0.7;0.7;;;;;;;32.12;17.48926;929.9344;;;;
2022/11/15 12:06:53;;;;;;;1.4;0.6;;;;;;;32.5;17.02344;929.9168;;;;
2022/11/15 12:09:18;;;;;;;1.1;0.7;;;;;;;33;16.94629;929.8176;;;;
2022/11/15 12:11:43;;;;;;;1.9;0.9;;;;;;;33.45;16.48242;929.8198;;;;
2022/11/15 12:14:08;;;;;;;1.3;0.7;;;;;;;33.83;16.03906;929.8013;;;;
2022/11/15 12:16:33;;;;;;;1.2;0.7;;;;;;;34.07;15.62598;929.7903;;;;
2022/11/15 12:18:59;;;;;;;1.4;0.8;;;;;;;33.58;15.56152;929.6962;;;;
2022/11/15 12:21:24;;;;;;;1.1;0.8;;;;;;;33.76;15.51953;929.7039;;;;
2022/11/15 12:23:50;;;;;;;1.1;0.8;;;;;;;33.62;16.00781;929.6494;;;;
2022/11/15 12:26:15;;;;;;;0.8;0.6;;;;;;;33.23;16.15039;929.6559;;;;
2022/11/15 12:28:41;;;;;;;0.7;0.7;;;;;;;32.75;16.69727;929.6077;;;;
2022/11/15 12:31:06;;;;;;;0.7;0.7;;;;;;;31.69;17.38867;929.6215;;;;
2022/11/15 12:33:31;;;;;;;1.4;0.8;;;;;;;31.71;17.47363;929.5977;;;;
2022/11/15 12:35:58;;;;;;;1.8;1;;;;;;;31.78;17.00879;929.5556;;;;
2022/11/15 12:38:23;;;;;;;1.7;1.1;;;;;;;29.2;19.96191;929.6158;;;;
2022/11/15 12:40:48;;;;;;;1;0.9;;;;;;;27.26;22.75684;929.618;;;;
2022/11/15 12:43:15;;;;;;;1.1;0.8;;;;;;;26.49;23.01465;929.6013;;;;
2022/11/15 12:45:40;;;;;;;4;1.1;;;;;;;26.86;22.59473;929.4964;;;;
2022/11/15 12:48:05;;;;;;;1.5;0.9;;;;;;;27.11;22.66699;929.5378;;;;
2022/11/15 12:50:32;;;;;;;2.1;0.7;;;;;;;28.32;20.9209;929.5378;;;;
2022/11/15 12:52:57;;;;;;;1.8;1;;;;;;;27.62;21.45801;929.4724;;;;
2022/11/15 12:55:23;;;;;;;1;0.8;;;;;;;29.28;20.71582;929.5087;;;;
2022/11/15 12:57:48;;;;;;;2.2;1.1;;;;;;;31.3;18.1875;929.4878;;;;
2022/11/15 13:00:14;;;;;;;1.7;0.9;;;;;;;32.7;16.94727;929.448;;;;
2022/11/15 13:02:39;;;;;;;1.1;1;;;;;;;33.47;16.63965;929.4689;;;;
2022/11/15 13:05:04;;;;;;;2.3;1.1;;;;;;;33.53;16.90625;929.5529;;;;
2022/11/15 13:07:32;;;;;;;2.3;0.7;;;;;;;33.53;17.71191;929.532;;;;
2022/11/15 13:11:25;;;;;;;1.6;0.6;;;;;;;34.82;17.01465;929.525;;;;
2022/11/15 13:13:50;;;;;;;1;0.6;;;;;;;35.22;16.76367;929.512;;;;
2022/11/15 13:16:17;;;;;;;0.7;0.7;;;;;;;35.88;16.23242;929.4738;;;;
2022/11/15 13:18:42;;;;;;;1.4;0.9;;;;;;;36.21;15.6875;929.5158;;;;
2022/11/15 13:22:50;;;;;;;2.2;0.8;;;;;;;36.24;16.01563;929.5129;;;;
2022/11/15 13:23:32;;;;;;;1.6;0.9;;;;;;;35.4;16.74609;929.5432;;;;
2022/11/15 13:26:00;;;;;;;1.9;0.7;;;;;;;35.52;16.98047;929.546;;;;
2022/11/15 13:28:25;;;;;;;1.3;0.9;;;;;;;35.09;17.26563;929.6005;;;;
2022/11/15 13:30:54;;;;;;;2.7;1.1;;;;;;;33.79;18.28711;929.614;;;;
2022/11/15 13:33:19;;;;;;;2.6;1;;;;;;;31.86;20.29492;929.5466;;;;
2022/11/15 13:35:44;;;;;;;1.3;1;;;;;;;30.68;21.46094;929.6006;;;;
2022/11/15 13:38:09;;;;;;;3.9;1.1;;;;;;;29.22;22.89258;929.5739;;;;
2022/11/15 13:40:34;;;;;;;3.2;0.8;;;;;;;27.54;24.75293;929.5392;;;;
2022/11/15 13:43:00;;;;;;;2.5;1.1;;;;;;;25.43;27.36523;929.6814;;;;
2022/11/15 13:45:26;;;;;;;3.5;1.1;;;;;;;24.38;28.71484;929.6984;;;;
2022/11/15 13:47:52;;;;;;;2.2;1;;;;;;;22.87;30.97754;929.6889;;;;
2022/11/15 13:50:17;;;;;;;1.4;1;;;;;;;21.29;33.64063;929.7474;;;;
2022/11/15 13:52:42;;;;;;;3.8;1.1;;;;;;;20.23;35.65039;929.7427;;;;
2022/11/15 13:55:10;;;;;;;2;1;;;;;;;19.77;36.73242;929.7983;;;;
2022/11/15 13:57:35;;;;;;;1.9;1.1;;;;;;;18.88;38.39258;929.7505;;;;
2022/11/15 14:00:00;;;;;;;1.2;1.1;;;;;;;18.47;39.40527;929.7695;;;;
2022/11/15 14:02:25;;;;;;;1.9;1.1;;;;;;;17.63;41.82422;929.7748;;;;
2022/11/15 14:04:50;;;;;;;2.1;1.1;;;;;;;17.44;42.31641;929.7836;;;;
2022/11/15 14:07:15;;;;;;;1.9;1.4;;;;;;;17.42;42.81348;929.7222;;;;
2022/11/15 14:09:46;;;;;;;2.1;1.4;;;;;;;17.01;43.8623;929.8574;;;;
2022/11/15 14:12:09;;;;;;;1.8;1.1;;;;;;;16.85;44.77344;929.788;;;;
2022/11/15 14:14:34;;;;;;;2.1;1.5;;;;;;;16.49;45.79004;929.8179;;;;
2022/11/15 14:16:59;;;;;;;4.5;1.8;;;;;;;16.38;46.24121;929.8536;;;;
2022/11/15 14:19:31;;;;;;;3.3;1.6;;;;;;;15.91;47.48633;929.8826;;;;
2022/11/15 14:21:57;;;;;;;1.9;1.5;;;;;;;15.17;49.65625;929.9038;;;;
2022/11/15 14:24:22;;;;;;;2.2;1.5;;;;;;;15.25;49.76855;929.9216;;;;
2022/11/15 14:26:48;;;;;;;3.1;1.7;;;;;;;15.13;50.37793;929.8599;;;;
2022/11/15 14:29:14;;;;;;;2.7;1.8;;;;;;;15.11;50.75684;929.9405;;;;
2022/11/15 14:31:40;;;;;;;2.6;1.8;;;;;;;15.14;50.95801;929.8892;;;;
2022/11/15 14:34:05;;;;;;;3.1;1.8;;;;;;;15.2;51.04395;929.9321;;;;
2022/11/15 14:37:46;;;;;;;4;2;;;;;;;15.05;51.68555;929.9288;;;;
2022/11/15 14:40:14;;;;;;;2.1;1.9;;;;;;;15;52.3584;929.8439;;;;
2022/11/15 14:42:39;;;;;;;2;1.8;;;;;;;15.01;52.39551;929.947;;;;
2022/11/15 14:45:08;;;;;;;2.4;1.9;;;;;;;14.95;52.28418;929.9498;;;;
2022/11/15 14:47:33;;;;;;;3.3;2;;;;;;;14.92;52.26855;929.9891;;;;
2022/11/15 14:50:01;;;;;;;2.5;2.2;;;;;;;14.96;52.59766;929.9872;;;;
2022/11/15 14:52:29;;;;;;;3.5;2;;;;;;;14.78;53.75195;930.0477;;;;
2022/11/15 14:54:53;;;;;;;4.2;2;;;;;;;14.8;52.28906;930.012;;;;
2022/11/15 14:57:20;;;;;;;3.7;1.9;;;;;;;14.71;52.29102;930.0522;;;;
2022/11/15 14:59:45;;;;;;;2.3;1.9;;;;;;;14.79;52.55273;930.0651;;;;
2022/11/15 15:02:11;;;;;;;1.9;1.7;;;;;;;14.79;52.55273;929.9433;;;;
2022/11/15 15:04:36;;;;;;;3.1;2.1;;;;;;;14.78;52.49414;929.99;;;;
2022/11/15 15:07:01;;;;;;;2.7;1.9;;;;;;;14.81;52.57813;929.9285;;;;
2022/11/15 15:09:27;;;;;;;3.5;2.1;;;;;;;14.74;53.36523;930.0292;;;;
2022/11/15 15:11:54;;;;;;;3.9;2.4;;;;;;;14.57;54.12793;930.0483;;;;
2022/11/15 15:14:17;;;;;;;3.9;2.5;;;;;;;14.53;55.17285;930.0522;;;;
2022/11/15 15:16:42;;;;;;;3.7;2.4;;;;;;;14.51;55.07715;930.1175;;;;
2022/11/15 15:19:07;;;;;;;3.7;2.8;;;;;;;14.45;54.83984;930.1049;;;;
2022/11/15 15:21:34;;;;;;;5.9;3.3;;;;;;;14.33;55.37695;930.1091;;;;
2022/11/15 15:23:59;;;;;;;4.2;3;;;;;;;14.36;55.4375;930.0893;;;;
2022/11/15 15:26:27;;;;;;;4.5;3.1;;;;;;;14.34;55.41406;930.0952;;;;
2022/11/15 15:28:52;;;;;;;4.1;2.8;;;;;;;14.34;55.49316;930.1074;;;;
2022/11/15 15:31:20;;;;;;;3.7;2.8;;;;;;;14.35;55.46094;930.0502;;;;
2022/11/15 15:33:45;;;;;;;5.1;3.1;;;;;;;14.36;55.50684;930.0541;;;;
2022/11/15 15:36:10;;;;;;;4.1;3;;;;;;;14.34;55.41309;930.0705;;;;
2022/11/15 15:38:35;;;;;;;3.5;2.7;;;;;;;14.27;55.94629;930.0508;;;;
2022/11/15 15:41:02;;;;;;;7;3.9;;;;;;;14.21;55.69629;930.0012;;;;
2022/11/15 15:43:27;;;;;;;5.7;3.6;;;;;;;14.22;55.7793;929.9869;;;;
2022/11/15 15:45:54;;;;;;;6.5;4.6;;;;;;;14.15;56.06934;930.0455;;;;
2022/11/15 15:48:19;;;;;;;13.2;6.8;;;;;;;14.17;56.15234;930.046;;;;
2022/11/15 15:50:45;;;;;;;7.5;5;;;;;;;14.1;56.28027;930.0055;;;;
2022/11/15 15:53:10;;;;;;;9.5;6.4;;;;;;;14.12;56.66406;929.9963;;;;
2022/11/15 15:55:36;;;;;;;8.8;5.4;;;;;;;13.95;56.77832;929.9518;;;;
2022/11/15 15:58:00;;;;;;;6.8;4;;;;;;;13.75;57.23633;929.9172;;;;
2022/11/15 16:00:27;;;;;;;8;4.5;;;;;;;13.72;58.06055;930.0321;;;;
2022/11/15 16:02:53;;;;;;;3.9;2.5;;;;;;;13.69;57.90723;930.0053;;;;